sensor_id;sensor_type;location;lat;lon;timestamp;P1;durP1;ratioP1;P2;durP2;ratioP2
55090;SDS011;40985;53.180;5.800;2023-02-02T00:01:50;22.85;;;1.98;;
55090;SDS011;40985;53.180;5.800;2023-02-02T00:04:24;23.45;;;1.75;;
55090;SDS011;40985;53.180;5.800;2023-02-02T00:06:55;27.77;;;1.77;;
55090;SDS011;40985;53.180;5.800;2023-02-02T00:09:27;31.02;;;2.65;;
55090;SDS011;40985;53.180;5.800;2023-02-02T00:11:54;25.27;;;2.55;;
55090;SDS011;40985;53.180;5.800;2023-02-02T00:14:20;29.17;;;2.55;;
55090;SDS011;40985;53.180;5.800;2023-02-02T00:16:47;27.17;;;3.15;;
55090;SDS011;40985;53.180;5.800;2023-02-02T00:19:15;20.15;;;1.88;;
55090;SDS011;40985;53.180;5.800;2023-02-02T00:21:42;25.85;;;1.98;;
55090;SDS011;40985;53.180;5.800;2023-02-02T00:24:09;26.17;;;2.67;;
55090;SDS011;40985;53.180;5.800;2023-02-02T00:26:37;23.70;;;2.53;;
55090;SDS011;40985;53.180;5.800;2023-02-02T00:29:05;23.50;;;3.28;;
55090;SDS011;40985;53.180;5.800;2023-02-02T00:31:32;30.45;;;3.05;;
55090;SDS011;40985;53.180;5.800;2023-02-02T00:33:58;23.95;;;3.22;;
55090;SDS011;40985;53.180;5.800;2023-02-02T00:36:24;27.55;;;2.72;;
55090;SDS011;40985;53.180;5.800;2023-02-02T00:38:50;27.25;;;2.25;;
55090;SDS011;40985;53.180;5.800;2023-02-02T00:41:17;15.32;;;0.90;;
55090;SDS011;40985;53.180;5.800;2023-02-02T00:43:43;21.70;;;1.70;;
55090;SDS011;40985;53.180;5.800;2023-02-02T00:46:15;27.73;;;2.33;;
55090;SDS011;40985;53.180;5.800;2023-02-02T00:48:42;26.83;;;2.67;;
55090;SDS011;40985;53.180;5.800;2023-02-02T00:51:08;21.38;;;1.42;;
55090;SDS011;40985;53.180;5.800;2023-02-02T00:53:34;30.75;;;2.88;;
55090;SDS011;40985;53.180;5.800;2023-02-02T00:55:59;26.40;;;1.88;;
55090;SDS011;40985;53.180;5.800;2023-02-02T00:58:25;25.27;;;1.95;;
55090;SDS011;40985;53.180;5.800;2023-02-02T01:00:51;21.90;;;1.05;;
55090;SDS011;40985;53.180;5.800;2023-02-02T01:03:16;23.77;;;1.88;;
55090;SDS011;40985;53.180;5.800;2023-02-02T01:05:42;22.17;;;1.75;;
55090;SDS011;40985;53.180;5.800;2023-02-02T01:08:09;26.17;;;1.90;;
55090;SDS011;40985;53.180;5.800;2023-02-02T01:10:34;29.75;;;3.85;;
55090;SDS011;40985;53.180;5.800;2023-02-02T01:13:00;32.20;;;2.25;;
55090;SDS011;40985;53.180;5.800;2023-02-02T01:15:26;38.08;;;2.75;;
55090;SDS011;40985;53.180;5.800;2023-02-02T01:17:54;29.38;;;2.65;;
55090;SDS011;40985;53.180;5.800;2023-02-02T01:20:21;24.17;;;2.05;;
55090;SDS011;40985;53.180;5.800;2023-02-02T01:22:47;31.42;;;3.35;;
55090;SDS011;40985;53.180;5.800;2023-02-02T01:25:12;30.65;;;3.35;;
55090;SDS011;40985;53.180;5.800;2023-02-02T01:27:38;34.63;;;3.30;;
55090;SDS011;40985;53.180;5.800;2023-02-02T01:30:04;33.78;;;3.40;;
55090;SDS011;40985;53.180;5.800;2023-02-02T01:32:30;26.27;;;2.20;;
55090;SDS011;40985;53.180;5.800;2023-02-02T01:34:57;35.60;;;2.15;;
55090;SDS011;40985;53.180;5.800;2023-02-02T01:37:22;32.22;;;1.90;;
55090;SDS011;40985;53.180;5.800;2023-02-02T01:39:48;27.88;;;3.22;;
55090;SDS011;40985;53.180;5.800;2023-02-02T01:42:15;31.70;;;2.53;;
55090;SDS011;40985;53.180;5.800;2023-02-02T01:47:26;26.63;;;1.77;;
55090;SDS011;40985;53.180;5.800;2023-02-02T01:49:55;30.05;;;3.08;;
55090;SDS011;40985;53.180;5.800;2023-02-02T01:52:21;26.80;;;2.45;;
55090;SDS011;40985;53.180;5.800;2023-02-02T01:54:52;26.15;;;3.08;;
55090;SDS011;40985;53.180;5.800;2023-02-02T01:57:25;22.02;;;1.48;;
55090;SDS011;40985;53.180;5.800;2023-02-02T01:59:59;20.48;;;1.05;;
55090;SDS011;40985;53.180;5.800;2023-02-02T02:02:29;26.35;;;1.77;;
55090;SDS011;40985;53.180;5.800;2023-02-02T02:04:55;23.75;;;1.88;;
55090;SDS011;40985;53.180;5.800;2023-02-02T02:07:23;26.73;;;3.13;;
55090;SDS011;40985;53.180;5.800;2023-02-02T02:09:48;25.88;;;2.42;;
55090;SDS011;40985;53.180;5.800;2023-02-02T02:12:14;21.02;;;1.65;;
55090;SDS011;40985;53.180;5.800;2023-02-02T02:14:42;19.45;;;2.20;;
55090;SDS011;40985;53.180;5.800;2023-02-02T02:42:48;25.77;;;2.17;;
55090;SDS011;40985;53.180;5.800;2023-02-02T02:45:20;23.88;;;1.42;;
55090;SDS011;40985;53.180;5.800;2023-02-02T02:47:47;22.90;;;1.33;;
55090;SDS011;40985;53.180;5.800;2023-02-02T02:50:15;18.25;;;1.20;;
55090;SDS011;40985;53.180;5.800;2023-02-02T02:52:41;21.73;;;1.30;;
55090;SDS011;40985;53.180;5.800;2023-02-02T02:55:07;17.20;;;1.92;;
55090;SDS011;40985;53.180;5.800;2023-02-02T03:00:20;24.65;;;1.30;;
55090;SDS011;40985;53.180;5.800;2023-02-02T03:03:20;21.15;;;1.50;;
55090;SDS011;40985;53.180;5.800;2023-02-02T03:06:09;24.75;;;2.40;;
55090;SDS011;40985;53.180;5.800;2023-02-02T03:08:48;16.52;;;1.25;;
55090;SDS011;40985;53.180;5.800;2023-02-02T03:11:22;8.27;;;0.70;;
55090;SDS011;40985;53.180;5.800;2023-02-02T03:13:48;16.80;;;0.60;;
55090;SDS011;40985;53.180;5.800;2023-02-02T03:16:14;8.50;;;0.40;;
55090;SDS011;40985;53.180;5.800;2023-02-02T03:18:41;12.43;;;0.60;;
55090;SDS011;40985;53.180;5.800;2023-02-02T03:21:06;9.65;;;0.57;;
55090;SDS011;40985;53.180;5.800;2023-02-02T03:23:33;14.57;;;0.52;;
55090;SDS011;40985;53.180;5.800;2023-02-02T03:25:59;12.27;;;0.57;;
55090;SDS011;40985;53.180;5.800;2023-02-02T03:28:25;18.40;;;0.90;;
55090;SDS011;40985;53.180;5.800;2023-02-02T03:30:53;15.18;;;1.42;;
55090;SDS011;40985;53.180;5.800;2023-02-02T03:33:19;23.85;;;1.63;;
55090;SDS011;40985;53.180;5.800;2023-02-02T03:35:46;24.15;;;1.63;;
55090;SDS011;40985;53.180;5.800;2023-02-02T03:38:11;19.02;;;1.27;;
55090;SDS011;40985;53.180;5.800;2023-02-02T03:40:37;17.00;;;1.25;;
55090;SDS011;40985;53.180;5.800;2023-02-02T03:43:03;19.13;;;1.70;;
55090;SDS011;40985;53.180;5.800;2023-02-02T03:45:29;14.65;;;0.85;;
55090;SDS011;40985;53.180;5.800;2023-02-02T03:47:56;14.40;;;1.27;;
55090;SDS011;40985;53.180;5.800;2023-02-02T03:50:22;12.38;;;0.40;;
55090;SDS011;40985;53.180;5.800;2023-02-02T03:52:49;8.73;;;0.40;;
55090;SDS011;40985;53.180;5.800;2023-02-02T03:55:15;9.55;;;0.47;;
55090;SDS011;40985;53.180;5.800;2023-02-02T03:57:40;6.70;;;0.22;;
55090;SDS011;40985;53.180;5.800;2023-02-02T04:00:06;11.75;;;0.30;;
55090;SDS011;40985;53.180;5.800;2023-02-02T04:02:33;6.82;;;0.43;;
55090;SDS011;40985;53.180;5.800;2023-02-02T04:04:58;7.80;;;0.20;;
55090;SDS011;40985;53.180;5.800;2023-02-02T04:07:24;5.85;;;0.20;;
55090;SDS011;40985;53.180;5.800;2023-02-02T04:09:49;6.30;;;0.20;;
55090;SDS011;40985;53.180;5.800;2023-02-02T04:12:15;10.52;;;0.20;;
55090;SDS011;40985;53.180;5.800;2023-02-02T04:14:41;5.25;;;0.30;;
55090;SDS011;40985;53.180;5.800;2023-02-02T04:17:06;5.82;;;0.15;;
55090;SDS011;40985;53.180;5.800;2023-02-02T04:19:32;4.72;;;0.20;;
55090;SDS011;40985;53.180;5.800;2023-02-02T04:21:58;4.03;;;0.20;;
55090;SDS011;40985;53.180;5.800;2023-02-02T04:24:23;4.57;;;0.30;;
55090;SDS011;40985;53.180;5.800;2023-02-02T04:26:49;5.88;;;0.30;;
55090;SDS011;40985;53.180;5.800;2023-02-02T04:29:15;5.40;;;0.20;;
55090;SDS011;40985;53.180;5.800;2023-02-02T04:31:40;9.23;;;0.45;;
55090;SDS011;40985;53.180;5.800;2023-02-02T04:34:06;7.88;;;0.20;;
55090;SDS011;40985;53.180;5.800;2023-02-02T04:36:31;6.72;;;0.30;;
55090;SDS011;40985;53.180;5.800;2023-02-02T04:38:57;6.03;;;0.40;;
55090;SDS011;40985;53.180;5.800;2023-02-02T04:41:23;6.63;;;0.35;;
55090;SDS011;40985;53.180;5.800;2023-02-02T04:43:49;6.93;;;0.30;;
55090;SDS011;40985;53.180;5.800;2023-02-02T04:46:14;7.05;;;0.60;;
55090;SDS011;40985;53.180;5.800;2023-02-02T04:48:42;12.60;;;0.68;;
55090;SDS011;40985;53.180;5.800;2023-02-02T04:51:12;5.45;;;0.30;;
55090;SDS011;40985;53.180;5.800;2023-02-02T04:53:38;5.00;;;0.28;;
55090;SDS011;40985;53.180;5.800;2023-02-02T04:56:05;8.00;;;0.30;;
55090;SDS011;40985;53.180;5.800;2023-02-02T04:58:42;5.10;;;0.20;;
55090;SDS011;40985;53.180;5.800;2023-02-02T05:03:41;7.63;;;0.30;;
55090;SDS011;40985;53.180;5.800;2023-02-02T05:06:08;10.02;;;0.30;;
55090;SDS011;40985;53.180;5.800;2023-02-02T05:08:34;9.32;;;0.20;;
55090;SDS011;40985;53.180;5.800;2023-02-02T05:11:05;4.60;;;0.30;;
55090;SDS011;40985;53.180;5.800;2023-02-02T05:13:34;10.30;;;0.55;;
55090;SDS011;40985;53.180;5.800;2023-02-02T05:16:00;9.38;;;0.35;;
55090;SDS011;40985;53.180;5.800;2023-02-02T05:18:26;9.20;;;0.73;;
55090;SDS011;40985;53.180;5.800;2023-02-02T05:20:53;10.70;;;0.50;;
55090;SDS011;40985;53.180;5.800;2023-02-02T05:23:19;10.80;;;0.40;;
55090;SDS011;40985;53.180;5.800;2023-02-02T05:25:50;15.93;;;0.50;;
55090;SDS011;40985;53.180;5.800;2023-02-02T05:28:20;4.55;;;0.40;;
55090;SDS011;40985;53.180;5.800;2023-02-02T05:30:46;8.73;;;0.40;;
55090;SDS011;40985;53.180;5.800;2023-02-02T05:33:12;10.70;;;0.43;;
55090;SDS011;40985;53.180;5.800;2023-02-02T05:35:38;12.35;;;0.57;;
55090;SDS011;40985;53.180;5.800;2023-02-02T05:38:03;8.40;;;0.63;;
55090;SDS011;40985;53.180;5.800;2023-02-02T05:40:29;8.18;;;0.60;;
55090;SDS011;40985;53.180;5.800;2023-02-02T05:42:55;12.82;;;0.50;;
55090;SDS011;40985;53.180;5.800;2023-02-02T05:45:21;11.63;;;0.40;;
55090;SDS011;40985;53.180;5.800;2023-02-02T05:47:47;8.00;;;0.47;;
55090;SDS011;40985;53.180;5.800;2023-02-02T05:50:12;7.68;;;0.60;;
55090;SDS011;40985;53.180;5.800;2023-02-02T05:52:38;14.05;;;0.60;;
55090;SDS011;40985;53.180;5.800;2023-02-02T05:55:06;9.48;;;0.60;;
55090;SDS011;40985;53.180;5.800;2023-02-02T05:57:34;10.45;;;0.50;;
55090;SDS011;40985;53.180;5.800;2023-02-02T06:00:00;10.57;;;0.50;;
55090;SDS011;40985;53.180;5.800;2023-02-02T06:02:25;6.03;;;0.30;;
55090;SDS011;40985;53.180;5.800;2023-02-02T06:04:51;8.38;;;0.35;;
55090;SDS011;40985;53.180;5.800;2023-02-02T06:07:17;11.20;;;0.50;;
55090;SDS011;40985;53.180;5.800;2023-02-02T06:09:42;10.00;;;0.52;;
55090;SDS011;40985;53.180;5.800;2023-02-02T06:12:08;13.30;;;0.75;;
55090;SDS011;40985;53.180;5.800;2023-02-02T06:14:34;8.70;;;0.40;;
55090;SDS011;40985;53.180;5.800;2023-02-02T06:16:59;9.57;;;0.57;;
55090;SDS011;40985;53.180;5.800;2023-02-02T06:19:25;11.02;;;0.70;;
55090;SDS011;40985;53.180;5.800;2023-02-02T06:21:51;12.95;;;0.90;;
55090;SDS011;40985;53.180;5.800;2023-02-02T06:24:16;14.68;;;1.48;;
55090;SDS011;40985;53.180;5.800;2023-02-02T06:26:42;13.48;;;0.80;;
55090;SDS011;40985;53.180;5.800;2023-02-02T06:29:10;7.68;;;1.00;;
55090;SDS011;40985;53.180;5.800;2023-02-02T06:31:37;8.20;;;0.90;;
55090;SDS011;40985;53.180;5.800;2023-02-02T06:34:02;7.53;;;0.70;;
55090;SDS011;40985;53.180;5.800;2023-02-02T06:36:28;6.97;;;0.73;;
55090;SDS011;40985;53.180;5.800;2023-02-02T06:38:55;8.05;;;0.70;;
55090;SDS011;40985;53.180;5.800;2023-02-02T06:41:21;7.43;;;1.25;;
55090;SDS011;40985;53.180;5.800;2023-02-02T06:43:48;8.50;;;0.50;;
55090;SDS011;40985;53.180;5.800;2023-02-02T06:46:14;11.02;;;0.80;;
55090;SDS011;40985;53.180;5.800;2023-02-02T06:48:40;12.27;;;0.90;;
55090;SDS011;40985;53.180;5.800;2023-02-02T06:51:06;10.77;;;1.25;;
55090;SDS011;40985;53.180;5.800;2023-02-02T06:53:32;14.65;;;1.20;;
55090;SDS011;40985;53.180;5.800;2023-02-02T06:56:00;8.13;;;1.05;;
55090;SDS011;40985;53.180;5.800;2023-02-02T06:58:28;11.13;;;1.70;;
55090;SDS011;40985;53.180;5.800;2023-02-02T07:00:59;12.65;;;2.38;;
55090;SDS011;40985;53.180;5.800;2023-02-02T07:03:29;7.43;;;2.17;;
55090;SDS011;40985;53.180;5.800;2023-02-02T07:05:55;10.32;;;1.95;;
55090;SDS011;40985;53.180;5.800;2023-02-02T07:08:21;11.55;;;2.35;;
55090;SDS011;40985;53.180;5.800;2023-02-02T07:10:47;13.25;;;2.83;;
55090;SDS011;40985;53.180;5.800;2023-02-02T07:13:12;9.40;;;2.13;;
55090;SDS011;40985;53.180;5.800;2023-02-02T07:15:38;14.32;;;2.38;;
55090;SDS011;40985;53.180;5.800;2023-02-02T07:18:04;11.23;;;2.33;;
55090;SDS011;40985;53.180;5.800;2023-02-02T07:20:30;14.45;;;2.90;;
55090;SDS011;40985;53.180;5.800;2023-02-02T07:22:56;14.40;;;2.85;;
55090;SDS011;40985;53.180;5.800;2023-02-02T07:25:22;16.30;;;3.05;;
55090;SDS011;40985;53.180;5.800;2023-02-02T07:27:51;15.27;;;3.13;;
55090;SDS011;40985;53.180;5.800;2023-02-02T07:30:18;15.45;;;2.97;;
55090;SDS011;40985;53.180;5.800;2023-02-02T07:32:47;15.43;;;3.60;;
55090;SDS011;40985;53.180;5.800;2023-02-02T07:35:14;16.25;;;3.20;;
55090;SDS011;40985;53.180;5.800;2023-02-02T07:37:41;15.45;;;2.97;;
55090;SDS011;40985;53.180;5.800;2023-02-02T07:40:07;13.70;;;2.85;;
55090;SDS011;40985;53.180;5.800;2023-02-02T07:42:33;12.57;;;2.35;;
55090;SDS011;40985;53.180;5.800;2023-02-02T07:44:59;16.30;;;2.22;;
55090;SDS011;40985;53.180;5.800;2023-02-02T07:47:25;16.42;;;3.03;;
55090;SDS011;40985;53.180;5.800;2023-02-02T07:49:51;14.35;;;2.40;;
55090;SDS011;40985;53.180;5.800;2023-02-02T07:52:16;13.15;;;1.95;;
55090;SDS011;40985;53.180;5.800;2023-02-02T07:54:42;13.27;;;2.40;;
55090;SDS011;40985;53.180;5.800;2023-02-02T07:57:08;10.80;;;2.70;;
55090;SDS011;40985;53.180;5.800;2023-02-02T07:59:33;15.95;;;3.63;;
55090;SDS011;40985;53.180;5.800;2023-02-02T08:01:59;15.48;;;3.50;;
55090;SDS011;40985;53.180;5.800;2023-02-02T08:04:25;10.90;;;2.85;;
55090;SDS011;40985;53.180;5.800;2023-02-02T08:06:51;17.17;;;3.53;;
55090;SDS011;40985;53.180;5.800;2023-02-02T08:09:16;17.63;;;3.58;;
55090;SDS011;40985;53.180;5.800;2023-02-02T08:11:42;13.50;;;3.95;;
55090;SDS011;40985;53.180;5.800;2023-02-02T08:14:09;19.92;;;4.35;;
55090;SDS011;40985;53.180;5.800;2023-02-02T08:16:37;16.02;;;4.07;;
55090;SDS011;40985;53.180;5.800;2023-02-02T08:19:03;14.23;;;3.70;;
55090;SDS011;40985;53.180;5.800;2023-02-02T08:21:31;15.07;;;3.75;;
55090;SDS011;40985;53.180;5.800;2023-02-02T08:23:57;20.50;;;4.00;;
55090;SDS011;40985;53.180;5.800;2023-02-02T08:26:26;15.63;;;3.53;;
55090;SDS011;40985;53.180;5.800;2023-02-02T08:28:54;18.95;;;4.18;;
55090;SDS011;40985;53.180;5.800;2023-02-02T08:31:32;19.23;;;3.75;;
55090;SDS011;40985;53.180;5.800;2023-02-02T08:33:59;9.57;;;3.20;;
55090;SDS011;40985;53.180;5.800;2023-02-02T08:36:26;16.75;;;3.53;;
55090;SDS011;40985;53.180;5.800;2023-02-02T08:38:52;15.30;;;3.70;;
55090;SDS011;40985;53.180;5.800;2023-02-02T08:41:19;12.68;;;4.43;;
55090;SDS011;40985;53.180;5.800;2023-02-02T08:43:47;12.80;;;4.05;;
55090;SDS011;40985;53.180;5.800;2023-02-02T08:46:14;16.00;;;3.83;;
55090;SDS011;40985;53.180;5.800;2023-02-02T08:48:40;13.90;;;3.65;;
55090;SDS011;40985;53.180;5.800;2023-02-02T08:51:06;11.95;;;3.97;;
55090;SDS011;40985;53.180;5.800;2023-02-02T08:53:34;11.27;;;3.65;;
55090;SDS011;40985;53.180;5.800;2023-02-02T08:56:05;9.32;;;4.13;;
55090;SDS011;40985;53.180;5.800;2023-02-02T08:58:34;16.10;;;4.63;;
55090;SDS011;40985;53.180;5.800;2023-02-02T09:03:35;10.02;;;3.92;;
55090;SDS011;40985;53.180;5.800;2023-02-02T09:06:05;10.43;;;4.05;;
55090;SDS011;40985;53.180;5.800;2023-02-02T09:08:31;8.32;;;3.40;;
55090;SDS011;40985;53.180;5.800;2023-02-02T09:11:08;6.97;;;3.33;;
55090;SDS011;40985;53.180;5.800;2023-02-02T09:13:38;8.80;;;3.80;;
55090;SDS011;40985;53.180;5.800;2023-02-02T09:16:05;12.07;;;3.35;;
55090;SDS011;40985;53.180;5.800;2023-02-02T09:18:33;8.57;;;2.88;;
55090;SDS011;40985;53.180;5.800;2023-02-02T09:20:59;11.48;;;3.47;;
55090;SDS011;40985;53.180;5.800;2023-02-02T09:23:27;9.45;;;3.47;;
55090;SDS011;40985;53.180;5.800;2023-02-02T09:25:54;8.10;;;2.22;;
55090;SDS011;40985;53.180;5.800;2023-02-02T09:28:20;11.48;;;2.50;;
55090;SDS011;40985;53.180;5.800;2023-02-02T09:30:45;8.75;;;2.38;;
55090;SDS011;40985;53.180;5.800;2023-02-02T09:33:11;8.73;;;2.50;;
55090;SDS011;40985;53.180;5.800;2023-02-02T09:35:37;10.48;;;3.63;;
55090;SDS011;40985;53.180;5.800;2023-02-02T09:38:02;8.45;;;3.35;;
55090;SDS011;40985;53.180;5.800;2023-02-02T09:40:28;14.82;;;4.00;;
55090;SDS011;40985;53.180;5.800;2023-02-02T09:43:06;11.57;;;3.75;;
55090;SDS011;40985;53.180;5.800;2023-02-02T09:46:04;12.90;;;4.10;;
55090;SDS011;40985;53.180;5.800;2023-02-02T09:48:42;9.25;;;3.35;;
55090;SDS011;40985;53.180;5.800;2023-02-02T09:51:23;9.23;;;3.40;;
55090;SDS011;40985;53.180;5.800;2023-02-02T09:53:59;5.45;;;2.10;;
55090;SDS011;40985;53.180;5.800;2023-02-02T09:56:37;6.07;;;1.88;;
55090;SDS011;40985;53.180;5.800;2023-02-02T09:59:06;4.35;;;1.70;;
55090;SDS011;40985;53.180;5.800;2023-02-02T10:01:42;4.78;;;2.10;;
55090;SDS011;40985;53.180;5.800;2023-02-02T10:04:13;3.65;;;1.65;;
55090;SDS011;40985;53.180;5.800;2023-02-02T10:06:46;5.90;;;1.42;;
55090;SDS011;40985;53.180;5.800;2023-02-02T10:09:32;3.17;;;0.95;;
55090;SDS011;40985;53.180;5.800;2023-02-02T10:15:00;3.38;;;1.38;;
55090;SDS011;40985;53.180;5.800;2023-02-02T10:17:40;2.70;;;0.70;;
55090;SDS011;40985;53.180;5.800;2023-02-02T10:23:12;6.43;;;1.00;;
55090;SDS011;40985;53.180;5.800;2023-02-02T10:28:23;3.67;;;1.02;;
55090;SDS011;40985;53.180;5.800;2023-02-02T10:31:00;6.15;;;1.00;;
55090;SDS011;40985;53.180;5.800;2023-02-02T10:33:29;3.95;;;0.88;;
55090;SDS011;40985;53.180;5.800;2023-02-02T10:38:37;5.55;;;0.60;;
55090;SDS011;40985;53.180;5.800;2023-02-02T10:41:07;3.65;;;0.50;;
55090;SDS011;40985;53.180;5.800;2023-02-02T10:46:31;2.35;;;0.30;;
55090;SDS011;40985;53.180;5.800;2023-02-02T10:49:10;2.45;;;0.40;;
55090;SDS011;40985;53.180;5.800;2023-02-02T11:02:39;2.53;;;0.50;;
55090;SDS011;40985;53.180;5.800;2023-02-02T11:05:05;3.45;;;0.30;;
55090;SDS011;40985;53.180;5.800;2023-02-02T11:07:54;2.75;;;0.22;;
55090;SDS011;40985;53.180;5.800;2023-02-02T11:10:20;3.15;;;0.30;;
55090;SDS011;40985;53.180;5.800;2023-02-02T11:12:46;2.03;;;0.32;;
55090;SDS011;40985;53.180;5.800;2023-02-02T11:15:24;2.10;;;1.05;;
55090;SDS011;40985;53.180;5.800;2023-02-02T11:17:52;2.13;;;0.52;;
55090;SDS011;40985;53.180;5.800;2023-02-02T11:20:36;2.55;;;0.60;;
55090;SDS011;40985;53.180;5.800;2023-02-02T11:23:03;1.38;;;0.80;;
55090;SDS011;40985;53.180;5.800;2023-02-02T11:25:37;2.17;;;0.60;;
55090;SDS011;40985;53.180;5.800;2023-02-02T11:28:37;2.30;;;0.60;;
55090;SDS011;40985;53.180;5.800;2023-02-02T11:30:58;1.90;;;0.50;;
55090;SDS011;40985;53.180;5.800;2023-02-02T11:35:53;5.53;;;1.10;;
55090;SDS011;40985;53.180;5.800;2023-02-02T11:38:24;5.90;;;1.10;;
55090;SDS011;40985;53.180;5.800;2023-02-02T11:41:04;2.22;;;0.50;;
55090;SDS011;40985;53.180;5.800;2023-02-02T11:43:36;3.70;;;1.05;;
55090;SDS011;40985;53.180;5.800;2023-02-02T11:48:57;9.13;;;3.88;;
55090;SDS011;40985;53.180;5.800;2023-02-02T11:51:26;10.95;;;6.68;;
55090;SDS011;40985;53.180;5.800;2023-02-02T11:56:37;6.25;;;4.47;;
55090;SDS011;40985;53.180;5.800;2023-02-02T11:59:03;6.43;;;3.00;;
55090;SDS011;40985;53.180;5.800;2023-02-02T12:01:30;7.85;;;3.40;;
55090;SDS011;40985;53.180;5.800;2023-02-02T12:04:02;6.15;;;2.90;;
55090;SDS011;40985;53.180;5.800;2023-02-02T12:06:54;5.15;;;1.95;;
55090;SDS011;40985;53.180;5.800;2023-02-02T12:09:22;4.65;;;2.60;;
55090;SDS011;40985;53.180;5.800;2023-02-02T12:17:03;5.88;;;2.63;;
55090;SDS011;40985;53.180;5.800;2023-02-02T12:28:34;10.35;;;4.22;;
55090;SDS011;40985;53.180;5.800;2023-02-02T12:31:36;12.48;;;4.53;;
55090;SDS011;40985;53.180;5.800;2023-02-02T12:37:02;23.23;;;7.53;;
55090;SDS011;40985;53.180;5.800;2023-02-02T12:48:25;27.80;;;7.18;;
55090;SDS011;40985;53.180;5.800;2023-02-02T12:56:33;59.67;;;9.27;;
55090;SDS011;40985;53.180;5.800;2023-02-02T13:01:46;50.55;;;8.20;;
55090;SDS011;40985;53.180;5.800;2023-02-02T13:04:26;38.58;;;7.35;;
55090;SDS011;40985;53.180;5.800;2023-02-02T13:07:18;42.20;;;8.20;;
55090;SDS011;40985;53.180;5.800;2023-02-02T13:12:22;36.88;;;8.77;;
55090;SDS011;40985;53.180;5.800;2023-02-02T13:14:51;43.50;;;8.55;;
55090;SDS011;40985;53.180;5.800;2023-02-02T13:17:24;44.65;;;11.15;;
55090;SDS011;40985;53.180;5.800;2023-02-02T13:20:01;48.60;;;9.57;;
55090;SDS011;40985;53.180;5.800;2023-02-02T13:22:33;41.63;;;9.18;;
55090;SDS011;40985;53.180;5.800;2023-02-02T13:25:04;47.05;;;10.80;;
55090;SDS011;40985;53.180;5.800;2023-02-02T13:27:34;44.13;;;9.80;;
55090;SDS011;40985;53.180;5.800;2023-02-02T13:32:53;37.33;;;9.27;;
55090;SDS011;40985;53.180;5.800;2023-02-02T13:35:24;40.00;;;10.60;;
55090;SDS011;40985;53.180;5.800;2023-02-02T13:38:15;39.33;;;10.32;;
55090;SDS011;40985;53.180;5.800;2023-02-02T13:40:45;50.33;;;10.35;;
55090;SDS011;40985;53.180;5.800;2023-02-02T13:46:10;55.05;;;10.50;;
55090;SDS011;40985;53.180;5.800;2023-02-02T13:59:42;33.60;;;6.03;;
55090;SDS011;40985;53.180;5.800;2023-02-02T14:02:58;44.05;;;7.07;;
55090;SDS011;40985;53.180;5.800;2023-02-02T14:05:07;31.08;;;5.70;;
55090;SDS011;40985;53.180;5.800;2023-02-02T14:08:03;34.55;;;5.80;;
55090;SDS011;40985;53.180;5.800;2023-02-02T14:10:43;42.70;;;6.28;;
55090;SDS011;40985;53.180;5.800;2023-02-02T14:13:22;32.45;;;5.30;;
55090;SDS011;40985;53.180;5.800;2023-02-02T14:19:01;38.40;;;4.18;;
55090;SDS011;40985;53.180;5.800;2023-02-02T14:29:33;35.00;;;4.57;;
55090;SDS011;40985;53.180;5.800;2023-02-02T14:34:35;33.97;;;5.00;;
55090;SDS011;40985;53.180;5.800;2023-02-02T14:39:55;30.90;;;3.75;;
55090;SDS011;40985;53.180;5.800;2023-02-02T14:45:40;28.90;;;3.78;;
55090;SDS011;40985;53.180;5.800;2023-02-02T14:50:48;28.27;;;6.60;;
55090;SDS011;40985;53.180;5.800;2023-02-02T14:53:21;38.40;;;13.75;;
55090;SDS011;40985;53.180;5.800;2023-02-02T14:56:02;32.50;;;6.13;;
55090;SDS011;40985;53.180;5.800;2023-02-02T14:58:31;65.32;;;21.90;;
55090;SDS011;40985;53.180;5.800;2023-02-02T15:06:46;29.33;;;11.57;;
55090;SDS011;40985;53.180;5.800;2023-02-02T15:19:46;30.17;;;13.63;;
55090;SDS011;40985;53.180;5.800;2023-02-02T15:22:29;32.15;;;10.82;;
55090;SDS011;40985;53.180;5.800;2023-02-02T15:24:56;31.98;;;6.13;;
55090;SDS011;40985;53.180;5.800;2023-02-02T15:27:27;31.00;;;10.88;;
55090;SDS011;40985;53.180;5.800;2023-02-02T15:29:57;34.55;;;5.93;;
55090;SDS011;40985;53.180;5.800;2023-02-02T15:32:28;31.98;;;7.93;;
55090;SDS011;40985;53.180;5.800;2023-02-02T15:34:58;36.25;;;15.05;;
55090;SDS011;40985;53.180;5.800;2023-02-02T15:37:33;31.00;;;7.82;;
55090;SDS011;40985;53.180;5.800;2023-02-02T15:40:12;25.25;;;5.18;;
55090;SDS011;40985;53.180;5.800;2023-02-02T15:42:41;30.23;;;5.95;;
55090;SDS011;40985;53.180;5.800;2023-02-02T15:47:53;27.58;;;7.05;;
55090;SDS011;40985;53.180;5.800;2023-02-02T15:50:21;24.25;;;4.80;;
55090;SDS011;40985;53.180;5.800;2023-02-02T15:52:48;32.33;;;7.60;;
55090;SDS011;40985;53.180;5.800;2023-02-02T15:57:46;29.30;;;4.95;;
55090;SDS011;40985;53.180;5.800;2023-02-02T16:00:31;39.85;;;5.15;;
55090;SDS011;40985;53.180;5.800;2023-02-02T16:07:59;35.20;;;5.07;;
55090;SDS011;40985;53.180;5.800;2023-02-02T16:10:25;34.20;;;4.65;;
55090;SDS011;40985;53.180;5.800;2023-02-02T16:12:51;30.50;;;4.95;;
55090;SDS011;40985;53.180;5.800;2023-02-02T16:15:18;27.70;;;5.28;;
55090;SDS011;40985;53.180;5.800;2023-02-02T16:17:58;31.80;;;6.82;;
55090;SDS011;40985;53.180;5.800;2023-02-02T16:20:28;27.17;;;4.38;;
55090;SDS011;40985;53.180;5.800;2023-02-02T16:22:57;33.65;;;7.93;;
55090;SDS011;40985;53.180;5.800;2023-02-02T16:25:26;31.70;;;6.25;;
55090;SDS011;40985;53.180;5.800;2023-02-02T16:27:54;28.60;;;5.75;;
55090;SDS011;40985;53.180;5.800;2023-02-02T16:32:51;28.73;;;6.38;;
55090;SDS011;40985;53.180;5.800;2023-02-02T16:35:29;34.58;;;8.38;;
55090;SDS011;40985;53.180;5.800;2023-02-02T16:38:10;29.17;;;7.43;;
55090;SDS011;40985;53.180;5.800;2023-02-02T16:43:30;33.40;;;7.28;;
55090;SDS011;40985;53.180;5.800;2023-02-02T16:45:58;36.55;;;11.93;;
55090;SDS011;40985;53.180;5.800;2023-02-02T16:51:25;30.25;;;6.53;;
55090;SDS011;40985;53.180;5.800;2023-02-02T16:56:33;24.55;;;7.13;;
55090;SDS011;40985;53.180;5.800;2023-02-02T16:59:20;32.13;;;5.90;;
55090;SDS011;40985;53.180;5.800;2023-02-02T17:01:51;28.92;;;9.48;;
55090;SDS011;40985;53.180;5.800;2023-02-02T17:06:48;45.53;;;23.35;;
55090;SDS011;40985;53.180;5.800;2023-02-02T17:11:56;31.23;;;8.23;;
55090;SDS011;40985;53.180;5.800;2023-02-02T17:14:27;26.90;;;5.68;;
55090;SDS011;40985;53.180;5.800;2023-02-02T17:16:55;23.55;;;4.65;;
55090;SDS011;40985;53.180;5.800;2023-02-02T17:19:21;23.55;;;4.95;;
55090;SDS011;40985;53.180;5.800;2023-02-02T17:21:46;30.23;;;5.88;;
55090;SDS011;40985;53.180;5.800;2023-02-02T17:24:14;30.85;;;5.53;;
55090;SDS011;40985;53.180;5.800;2023-02-02T17:26:40;26.85;;;4.90;;
55090;SDS011;40985;53.180;5.800;2023-02-02T17:29:07;30.10;;;5.85;;
55090;SDS011;40985;53.180;5.800;2023-02-02T17:31:36;26.08;;;5.72;;
55090;SDS011;40985;53.180;5.800;2023-02-02T17:34:02;32.47;;;5.53;;
55090;SDS011;40985;53.180;5.800;2023-02-02T17:36:33;30.67;;;7.35;;
55090;SDS011;40985;53.180;5.800;2023-02-02T17:38:59;25.00;;;5.88;;
55090;SDS011;40985;53.180;5.800;2023-02-02T17:41:24;32.65;;;6.28;;
55090;SDS011;40985;53.180;5.800;2023-02-02T17:43:50;17.60;;;5.97;;
55090;SDS011;40985;53.180;5.800;2023-02-02T17:46:16;29.90;;;8.77;;
55090;SDS011;40985;53.180;5.800;2023-02-02T17:48:42;24.05;;;3.72;;
55090;SDS011;40985;53.180;5.800;2023-02-02T17:51:13;20.73;;;5.53;;
55090;SDS011;40985;53.180;5.800;2023-02-02T17:53:40;23.77;;;4.22;;
55090;SDS011;40985;53.180;5.800;2023-02-02T17:56:06;22.75;;;5.03;;
55090;SDS011;40985;53.180;5.800;2023-02-02T17:58:31;22.75;;;5.22;;